createdAt,value
2023-02-12T00:02:22.056Z,5.20
2023-02-12T00:04:51.577Z,3.45
2023-02-12T00:07:20.858Z,6.03
2023-02-12T00:09:50.409Z,3.97
2023-02-12T00:12:19.602Z,2.35
2023-02-12T00:14:49.320Z,4.32
2023-02-12T00:17:18.597Z,3.38
2023-02-12T00:19:51.382Z,8.00
2023-02-12T00:22:20.572Z,4.50
2023-02-12T00:24:49.991Z,2.85
2023-02-12T00:27:19.367Z,4.05
2023-02-12T00:29:48.864Z,3.83
2023-02-12T00:32:19.694Z,3.15
2023-02-12T00:34:50.845Z,5.97
2023-02-12T00:37:20.238Z,4.50
2023-02-12T00:39:49.942Z,6.20
2023-02-12T00:42:19.089Z,4.97
2023-02-12T00:44:48.716Z,4.53
2023-02-12T00:47:18.076Z,4.82
2023-02-12T00:49:47.526Z,4.50
2023-02-12T00:52:18.150Z,3.78
2023-02-12T00:54:47.753Z,1.27
2023-02-12T00:57:17.085Z,2.67
2023-02-12T00:59:46.678Z,5.97
2023-02-12T01:02:16.120Z,1.10
2023-02-12T01:04:45.721Z,3.92
2023-02-12T01:07:14.952Z,5.95
2023-02-12T01:09:45.977Z,4.03
2023-02-12T01:12:15.311Z,1.88
2023-02-12T01:14:45.193Z,6.25
2023-02-12T01:17:14.655Z,2.90
2023-02-12T01:19:47.147Z,5.97
2023-02-12T01:22:16.376Z,5.80
2023-02-12T01:24:47.417Z,2.75
2023-02-12T01:27:17.462Z,2.03
2023-02-12T01:29:46.915Z,4.78
2023-02-12T01:32:16.262Z,2.70
2023-02-12T01:34:45.784Z,2.38
2023-02-12T01:37:15.044Z,4.15
2023-02-12T01:39:44.659Z,3.97
2023-02-12T01:42:18.739Z,2.80
2023-02-12T01:45:26.224Z,2.97
2023-02-12T01:47:56.019Z,2.97
2023-02-12T01:50:25.548Z,3.05
2023-02-12T01:52:58.900Z,2.13
2023-02-12T01:55:28.437Z,2.05
2023-02-12T01:57:59.259Z,6.63
2023-02-12T02:00:28.939Z,3.97
2023-02-12T02:03:02.817Z,2.45
2023-02-12T02:05:42.353Z,4.75
2023-02-12T02:08:12.230Z,3.15
2023-02-12T02:10:42.007Z,4.25
2023-02-12T02:13:30.435Z,4.13
2023-02-12T02:16:07.613Z,6.45
2023-02-12T02:18:45.687Z,8.32
2023-02-12T02:21:51.455Z,7.40
2023-02-12T02:25:00.550Z,4.25
2023-02-12T02:27:41.075Z,6.40
2023-02-12T02:30:32.774Z,3.30
2023-02-12T02:33:14.899Z,4.43
2023-02-12T02:35:51.471Z,3.90
2023-02-12T02:38:26.906Z,4.78
2023-02-12T02:41:03.883Z,3.08
2023-02-12T02:43:37.912Z,6.05
2023-02-12T02:46:15.009Z,6.25
2023-02-12T02:48:48.304Z,7.88
2023-02-12T02:51:21.246Z,3.78
2023-02-12T02:53:55.261Z,6.75
2023-02-12T02:56:29.330Z,5.97
2023-02-12T02:59:04.851Z,3.80
2023-02-12T03:01:41.318Z,3.97
2023-02-12T03:04:15.067Z,13.73
2023-02-12T03:06:51.966Z,6.18
2023-02-12T03:09:27.444Z,8.93
2023-02-12T03:12:00.829Z,5.00
2023-02-12T03:14:33.543Z,5.05
2023-02-12T03:17:08.045Z,5.05
2023-02-12T03:19:42.711Z,3.72
2023-02-12T03:22:15.593Z,8.52
2023-02-12T03:24:49.538Z,6.57
2023-02-12T03:27:22.708Z,8.15
2023-02-12T03:29:53.094Z,2.08
2023-02-12T03:33:47.066Z,4.70
2023-02-12T03:36:26.789Z,5.35
2023-02-12T03:38:58.855Z,3.75
2023-02-12T03:41:35.146Z,7.45
2023-02-12T03:44:11.696Z,6.82
2023-02-12T03:46:48.206Z,3.63
2023-02-12T03:49:24.670Z,5.28
2023-02-12T03:51:55.630Z,6.53
2023-02-12T03:54:25.659Z,2.33
2023-02-12T03:56:58.938Z,9.07
2023-02-12T03:59:28.749Z,8.40
2023-02-12T04:02:00.915Z,8.60
2023-02-12T04:04:30.928Z,7.63
2023-02-12T04:07:02.299Z,5.47
2023-02-12T04:09:33.603Z,6.65
2023-02-12T04:12:31.861Z,5.22
2023-02-12T04:15:25.659Z,11.10
2023-02-12T04:18:06.124Z,9.77
2023-02-12T04:20:49.007Z,7.80
2023-02-12T04:23:32.726Z,7.50
2023-02-12T04:26:12.165Z,9.77
2023-02-12T04:28:49.368Z,5.78
2023-02-12T04:31:30.681Z,6.03
2023-02-12T04:34:08.816Z,6.55
2023-02-12T04:36:46.243Z,6.38
2023-02-12T04:39:23.390Z,7.75
2023-02-12T04:41:53.446Z,7.97
2023-02-12T04:44:26.720Z,9.18
2023-02-12T04:46:56.028Z,4.40
2023-02-12T04:49:26.466Z,6.10
2023-02-12T04:51:55.870Z,7.05
2023-02-12T04:54:26.975Z,11.52
2023-02-12T04:56:56.256Z,10.57
2023-02-12T04:59:25.797Z,7.75
2023-02-12T05:01:55.057Z,3.33
2023-02-12T05:04:24.564Z,7.63
2023-02-12T05:06:53.713Z,10.40
2023-02-12T05:09:23.446Z,5.72
2023-02-12T05:11:54.091Z,11.45
2023-02-12T05:14:26.114Z,6.95
2023-02-12T05:16:55.436Z,7.53
2023-02-12T05:19:25.055Z,6.35
2023-02-12T05:21:54.304Z,7.88
2023-02-12T05:24:23.893Z,10.70
2023-02-12T05:26:54.602Z,9.77
2023-02-12T05:29:24.026Z,8.05
2023-02-12T05:31:53.532Z,7.47
2023-02-12T05:34:23.165Z,7.20
2023-02-12T05:36:52.328Z,6.78
2023-02-12T05:39:21.956Z,10.02
2023-02-12T05:41:51.165Z,6.28
2023-02-12T05:44:22.203Z,8.48
2023-02-12T05:46:51.457Z,8.05
2023-02-12T05:49:21.088Z,5.47
2023-02-12T05:51:50.425Z,9.27
2023-02-12T05:54:19.948Z,7.40
2023-02-12T05:56:49.890Z,4.57
2023-02-12T05:59:22.690Z,8.85
2023-02-12T06:01:53.192Z,10.13
2023-02-12T06:04:26.243Z,5.78
2023-02-12T06:06:56.868Z,5.80
2023-02-12T06:09:26.508Z,5.65
2023-02-12T06:11:55.774Z,9.38
2023-02-12T06:14:26.413Z,6.50
2023-02-12T06:16:55.938Z,8.60
2023-02-12T06:19:25.719Z,9.57
2023-02-12T06:21:55.253Z,11.02
2023-02-12T06:24:24.640Z,8.60
2023-02-12T06:26:54.461Z,6.60
2023-02-12T06:29:25.529Z,10.43
2023-02-12T06:31:55.288Z,7.80
2023-02-12T06:34:24.839Z,10.15
2023-02-12T06:36:54.386Z,9.85
2023-02-12T06:39:23.621Z,9.38
2023-02-12T06:41:53.229Z,7.25
2023-02-12T06:44:22.537Z,7.80
2023-02-12T06:46:53.737Z,9.38
2023-02-12T06:49:23.001Z,10.77
2023-02-12T06:51:52.547Z,10.45
2023-02-12T06:54:21.888Z,8.48
2023-02-12T06:56:51.574Z,10.02
2023-02-12T06:59:21.215Z,9.93
2023-02-12T07:01:52.245Z,8.23
2023-02-12T07:04:21.636Z,9.98
2023-02-12T07:06:52.310Z,7.88
2023-02-12T07:09:21.567Z,7.20
2023-02-12T07:11:52.222Z,10.52
2023-02-12T07:14:21.624Z,9.82
2023-02-12T07:16:52.597Z,6.90
2023-02-12T07:19:21.761Z,9.10
2023-02-12T07:21:51.566Z,5.47
2023-02-12T07:24:20.824Z,11.45
2023-02-12T07:26:50.366Z,7.22
2023-02-12T07:29:19.540Z,7.38
2023-02-12T07:31:49.287Z,6.65
2023-02-12T07:34:20.277Z,8.10
2023-02-12T07:36:49.870Z,12.82
2023-02-12T07:39:19.094Z,8.93
2023-02-12T07:41:48.556Z,4.95
2023-02-12T07:44:17.861Z,11.27
2023-02-12T07:46:49.156Z,7.72
2023-02-12T07:49:24.403Z,4.60
2023-02-12T07:51:55.666Z,6.80
2023-02-12T07:54:25.164Z,9.20
2023-02-12T07:56:55.034Z,11.10
2023-02-12T07:59:24.339Z,17.10
2023-02-12T08:01:57.224Z,29.13
2023-02-12T08:04:28.205Z,32.88
2023-02-12T08:06:58.609Z,24.67
2023-02-12T08:09:30.963Z,18.23
2023-02-12T08:12:00.766Z,25.23
2023-02-12T08:14:30.408Z,14.70
2023-02-12T08:16:59.940Z,16.52
2023-02-12T08:19:30.622Z,12.02
2023-02-12T08:22:02.326Z,10.82
2023-02-12T08:24:32.029Z,9.38
2023-02-12T08:27:01.724Z,12.45
2023-02-12T08:29:32.144Z,11.05
2023-02-12T08:32:03.264Z,9.80
2023-02-12T08:34:35.566Z,8.68
2023-02-12T08:37:07.731Z,12.90
2023-02-12T08:39:37.260Z,14.18
2023-02-12T08:42:07.006Z,17.85
2023-02-12T08:44:36.825Z,17.77
2023-02-12T08:47:07.310Z,10.32
2023-02-12T08:49:38.252Z,17.75
2023-02-12T08:52:07.878Z,14.68
2023-02-12T08:54:37.145Z,6.38
2023-02-12T08:57:07.023Z,13.00
2023-02-12T08:59:36.217Z,7.03
2023-02-12T09:02:08.872Z,10.30
2023-02-12T09:04:41.108Z,9.85
2023-02-12T09:07:11.057Z,15.20
2023-02-12T09:09:40.406Z,12.02
2023-02-12T09:12:10.111Z,12.48
2023-02-12T09:14:39.722Z,13.57
2023-02-12T09:17:09.428Z,13.77
2023-02-12T09:19:40.385Z,14.75
2023-02-12T09:22:09.877Z,11.68
2023-02-12T09:24:39.445Z,9.50
2023-02-12T09:27:09.067Z,14.93
2023-02-12T09:29:38.450Z,10.60
2023-02-12T09:32:09.387Z,10.25
2023-02-12T09:34:40.145Z,10.10
2023-02-12T09:37:09.751Z,14.93
2023-02-12T09:39:39.265Z,15.18
2023-02-12T09:42:39.261Z,8.85
2023-02-12T09:45:18.234Z,15.55
2023-02-12T09:47:56.536Z,9.32
2023-02-12T09:50:44.828Z,17.75
2023-02-12T09:53:17.879Z,14.35
2023-02-12T09:55:47.661Z,11.50
2023-02-12T09:58:35.636Z,12.30
2023-02-12T10:01:14.048Z,10.20
2023-02-12T10:03:45.212Z,11.18
2023-02-12T10:06:20.301Z,9.90
2023-02-12T10:09:09.366Z,11.00
2023-02-12T10:11:53.219Z,9.18
2023-02-12T10:14:52.460Z,7.95
2023-02-12T10:17:30.986Z,7.32
2023-02-12T10:20:40.386Z,9.02
2023-02-12T10:23:26.504Z,11.40
2023-02-12T10:25:59.205Z,10.20
2023-02-12T10:28:34.527Z,9.07
2023-02-12T10:31:09.054Z,7.18
2023-02-12T10:33:43.706Z,9.23
2023-02-12T10:36:25.345Z,9.45
2023-02-12T10:39:02.561Z,15.15
2023-02-12T10:41:39.484Z,12.00
2023-02-12T10:44:10.639Z,14.88
2023-02-12T10:46:40.302Z,10.85
2023-02-12T10:49:12.842Z,8.85
2023-02-12T10:51:58.574Z,10.75
2023-02-12T10:54:38.682Z,11.60
2023-02-12T10:57:20.077Z,10.30
2023-02-12T10:59:50.868Z,13.40
2023-02-12T11:02:26.609Z,8.55
2023-02-12T11:07:27.452Z,17.33
2023-02-12T11:09:58.979Z,10.45
2023-02-12T11:12:35.917Z,10.50
2023-02-12T11:15:09.004Z,10.90
2023-02-12T11:17:40.743Z,9.90
2023-02-12T11:20:24.299Z,10.77
2023-02-12T11:22:56.447Z,10.60
2023-02-12T11:25:29.207Z,9.02
2023-02-12T11:28:14.323Z,10.32
2023-02-12T11:30:58.462Z,9.45
2023-02-12T11:33:32.493Z,15.35
2023-02-12T11:36:07.228Z,11.13
2023-02-12T11:41:25.578Z,11.70
2023-02-12T11:43:55.461Z,13.85
2023-02-12T11:46:28.167Z,10.20
2023-02-12T11:49:00.874Z,10.55
2023-02-12T11:51:33.023Z,11.52
2023-02-12T11:54:06.376Z,11.40
2023-02-12T11:56:46.162Z,8.55
2023-02-12T11:59:33.345Z,14.40
2023-02-12T12:02:17.216Z,16.52
2023-02-12T12:04:51.394Z,16.80
2023-02-12T12:07:26.532Z,12.70
2023-02-12T12:12:38.655Z,11.40
2023-02-12T12:15:34.894Z,10.57
2023-02-12T12:18:29.807Z,14.45
2023-02-12T12:21:11.196Z,16.52
2023-02-12T12:23:45.795Z,13.55
2023-02-12T12:26:25.130Z,16.05
2023-02-12T12:29:02.804Z,14.98
2023-02-12T12:31:36.036Z,16.08
2023-02-12T12:34:10.194Z,13.02
2023-02-12T12:37:24.159Z,13.23
2023-02-12T12:40:11.835Z,12.95
2023-02-12T12:43:03.601Z,8.98
2023-02-12T12:46:05.299Z,17.05
2023-02-12T12:48:49.420Z,12.65
2023-02-12T12:51:41.213Z,15.23
2023-02-12T12:54:26.912Z,14.10
2023-02-12T12:57:06.321Z,12.13
2023-02-12T13:00:14.826Z,11.85
2023-02-12T13:03:18.029Z,14.65
2023-02-12T13:06:26.748Z,16.45
2023-02-12T13:09:30.286Z,12.50
2023-02-12T13:12:29.477Z,14.52
2023-02-12T13:15:05.603Z,14.65
2023-02-12T13:17:45.976Z,12.88
2023-02-12T13:20:23.478Z,11.52
2023-02-12T13:22:58.818Z,8.73
2023-02-12T13:25:33.298Z,8.38
2023-02-12T13:28:06.695Z,8.25
2023-02-12T13:30:44.414Z,10.68
2023-02-12T13:33:21.257Z,8.68
2023-02-12T13:35:56.812Z,10.00
2023-02-12T13:38:30.022Z,8.98
2023-02-12T13:41:03.445Z,11.45
2023-02-12T13:43:45.611Z,11.13
2023-02-12T13:46:22.817Z,9.52
2023-02-12T13:49:02.042Z,13.23
2023-02-12T13:51:43.095Z,10.45
2023-02-12T13:54:31.337Z,12.48
2023-02-12T13:57:03.517Z,14.30
2023-02-12T13:59:53.781Z,9.73
2023-02-12T14:02:53.714Z,8.35
2023-02-12T14:05:27.281Z,10.68
2023-02-12T14:08:00.622Z,8.40
2023-02-12T14:10:35.935Z,10.65
2023-02-12T14:13:17.670Z,8.80
2023-02-12T14:15:51.554Z,7.38
2023-02-12T14:18:36.001Z,6.65
2023-02-12T14:21:38.920Z,11.85
2023-02-12T14:24:52.749Z,12.13
2023-02-12T14:27:37.592Z,9.90
2023-02-12T14:30:31.607Z,7.78
2023-02-12T14:33:25.936Z,8.73
2023-02-12T14:36:15.367Z,10.07
2023-02-12T14:39:05.533Z,6.90
2023-02-12T14:41:39.017Z,7.07
2023-02-12T14:44:42.036Z,8.95
2023-02-12T14:47:44.182Z,9.00
2023-02-12T14:50:24.736Z,9.50
2023-02-12T14:53:00.187Z,9.13
2023-02-12T14:58:06.749Z,10.02
2023-02-12T15:00:42.055Z,11.75
2023-02-12T15:03:25.333Z,18.88
2023-02-12T15:06:11.348Z,11.65
2023-02-12T15:08:48.723Z,33.53
2023-02-12T15:11:36.844Z,31.80
2023-02-12T15:14:14.109Z,26.90
2023-02-12T15:16:52.708Z,27.90
2023-02-12T15:19:39.376Z,10.57
2023-02-12T15:22:21.767Z,9.80
2023-02-12T15:24:51.454Z,11.82
2023-02-12T15:27:22.255Z,15.43
2023-02-12T15:29:54.734Z,11.05
2023-02-12T15:32:28.621Z,12.13
2023-02-12T15:34:58.537Z,14.23
2023-02-12T15:37:31.033Z,11.25
2023-02-12T15:40:03.838Z,20.70
2023-02-12T15:42:35.654Z,23.20
2023-02-12T15:45:21.748Z,17.50
2023-02-12T15:48:02.120Z,9.63
2023-02-12T15:50:33.350Z,14.77
2023-02-12T15:53:04.366Z,8.73
2023-02-12T15:55:41.422Z,9.55
2023-02-12T15:58:22.904Z,11.77
2023-02-12T16:00:56.098Z,8.73
2023-02-12T16:03:34.063Z,10.32
2023-02-12T16:06:11.284Z,12.23
2023-02-12T16:08:41.800Z,14.80
2023-02-12T16:11:16.842Z,12.93
2023-02-12T16:13:49.003Z,10.77
2023-02-12T16:16:25.104Z,9.82
2023-02-12T16:19:17.538Z,12.95
2023-02-12T16:21:49.375Z,12.15
2023-02-12T16:24:32.927Z,15.82
2023-02-12T16:27:08.788Z,21.33
2023-02-12T16:29:46.752Z,22.33
2023-02-12T16:32:32.164Z,9.52
2023-02-12T16:35:05.408Z,12.57
2023-02-12T16:37:47.219Z,12.05
2023-02-12T16:40:30.648Z,14.60
2023-02-12T16:43:03.456Z,18.20
2023-02-12T16:45:39.175Z,37.15
2023-02-12T16:48:23.441Z,20.95
2023-02-12T16:50:55.896Z,13.95
2023-02-12T16:53:47.312Z,15.45
2023-02-12T16:56:21.268Z,9.00
2023-02-12T16:58:54.714Z,11.43
2023-02-12T17:01:27.689Z,8.73
2023-02-12T17:03:59.462Z,14.75
2023-02-12T17:06:31.035Z,26.70
2023-02-12T17:09:01.155Z,12.57
2023-02-12T17:11:31.129Z,16.13
2023-02-12T17:14:00.829Z,10.60
2023-02-12T17:16:32.066Z,9.38
2023-02-12T17:19:03.255Z,5.95
2023-02-12T17:21:38.313Z,10.57
2023-02-12T17:24:10.224Z,6.10
2023-02-12T17:26:40.060Z,6.20
2023-02-12T17:29:09.372Z,5.05
2023-02-12T17:31:39.012Z,5.80
2023-02-12T17:34:09.919Z,6.95
2023-02-12T17:36:40.203Z,4.22
2023-02-12T17:39:10.651Z,9.13
2023-02-12T17:41:40.914Z,6.30
2023-02-12T17:44:11.979Z,5.97
2023-02-12T17:46:42.107Z,10.73
2023-02-12T17:49:13.369Z,7.70
2023-02-12T17:51:43.249Z,7.57
2023-02-12T17:54:14.032Z,11.40
2023-02-12T17:56:43.826Z,8.77
2023-02-12T17:59:13.433Z,6.28
2023-02-12T18:01:43.330Z,8.65
2023-02-12T18:04:14.225Z,6.70
2023-02-12T18:06:45.151Z,8.23
2023-02-12T18:09:14.898Z,7.15
2023-02-12T18:11:44.558Z,10.35
2023-02-12T18:14:14.408Z,11.60
2023-02-12T18:16:44.082Z,12.73
2023-02-12T18:19:14.930Z,10.00
2023-02-12T18:21:44.715Z,7.75
2023-02-12T18:24:14.890Z,6.30
2023-02-12T18:26:45.458Z,9.18
2023-02-12T18:29:15.080Z,8.82
2023-02-12T18:31:44.998Z,13.35
2023-02-12T18:34:15.656Z,12.68
2023-02-12T18:36:45.672Z,25.10
2023-02-12T18:39:14.962Z,25.88
2023-02-12T18:41:45.089Z,24.58
2023-02-12T18:44:14.900Z,18.52
2023-02-12T18:46:44.633Z,15.32
2023-02-12T18:49:16.849Z,12.68
2023-02-12T18:51:46.510Z,14.25
2023-02-12T18:54:16.781Z,11.23
2023-02-12T18:56:48.262Z,15.52
2023-02-12T18:59:18.995Z,13.40
2023-02-12T19:01:50.786Z,14.32
2023-02-12T19:04:23.847Z,13.25
2023-02-12T19:06:55.622Z,11.63
2023-02-12T19:09:29.113Z,10.70
2023-02-12T19:12:01.538Z,16.10
2023-02-12T19:14:31.580Z,12.88
2023-02-12T19:17:01.514Z,17.30
2023-02-12T19:19:32.472Z,14.10
2023-02-12T19:22:02.023Z,14.13
2023-02-12T19:24:44.696Z,12.90
2023-02-12T19:27:16.172Z,11.70
2023-02-12T19:29:45.828Z,15.57
2023-02-12T19:32:15.564Z,12.50
2023-02-12T19:34:46.590Z,8.43
2023-02-12T19:37:16.655Z,9.93
2023-02-12T19:39:46.971Z,10.02
2023-02-12T19:42:17.679Z,11.13
2023-02-12T19:44:47.634Z,8.52
2023-02-12T19:47:17.892Z,11.18
2023-02-12T19:49:48.581Z,7.60
2023-02-12T19:52:18.273Z,11.05
2023-02-12T19:54:47.586Z,9.73
2023-02-12T19:57:17.249Z,8.90
2023-02-12T19:59:47.105Z,7.53
2023-02-12T20:02:16.772Z,8.48
2023-02-12T20:04:47.758Z,9.23
2023-02-12T20:07:17.207Z,7.70
2023-02-12T20:09:46.762Z,7.38
2023-02-12T20:12:16.685Z,9.80
2023-02-12T20:14:46.169Z,8.75
2023-02-12T20:17:15.919Z,8.20
2023-02-12T20:19:45.681Z,6.63
2023-02-12T20:22:17.058Z,6.68
2023-02-12T20:24:46.464Z,12.30
2023-02-12T20:27:16.319Z,12.05
2023-02-12T20:29:45.838Z,7.45
2023-02-12T20:32:15.677Z,16.77
2023-02-12T20:34:50.856Z,16.85
2023-02-12T20:39:51.370Z,10.27
2023-02-12T20:42:21.080Z,9.70
2023-02-12T20:44:50.481Z,15.52
2023-02-12T20:47:23.268Z,11.15
2023-02-12T20:49:52.688Z,9.50
2023-02-12T20:52:24.108Z,6.30
2023-02-12T20:54:53.418Z,6.93
2023-02-12T20:57:22.899Z,7.53
2023-02-12T20:59:52.119Z,6.55
2023-02-12T21:02:22.260Z,8.10
2023-02-12T21:04:52.521Z,14.77
2023-02-12T21:07:24.448Z,6.70
2023-02-12T21:09:56.767Z,11.90
2023-02-12T21:12:26.446Z,9.20
2023-02-12T21:14:55.714Z,10.13
2023-02-12T21:17:25.315Z,9.70
2023-02-12T21:19:54.581Z,7.93
2023-02-12T21:22:25.527Z,10.95
2023-02-12T21:24:54.943Z,12.13
2023-02-12T21:27:24.537Z,7.50
2023-02-12T21:29:53.872Z,10.68
2023-02-12T21:32:23.705Z,6.43
2023-02-12T21:34:53.095Z,9.40
2023-02-12T21:37:24.194Z,8.13
2023-02-12T21:39:53.403Z,7.35
2023-02-12T21:42:23.126Z,6.45
2023-02-12T21:44:52.789Z,7.45
2023-02-12T21:47:22.200Z,5.88
2023-02-12T21:49:52.100Z,6.00
2023-02-12T21:52:21.774Z,5.70
2023-02-12T21:54:53.597Z,5.93
2023-02-12T21:57:23.804Z,10.00
2023-02-12T21:59:53.133Z,9.38
2023-02-12T22:02:22.821Z,11.05
2023-02-12T22:04:54.819Z,6.15
2023-02-12T22:07:24.494Z,9.90
2023-02-12T22:09:57.434Z,7.13
2023-02-12T22:12:30.359Z,7.30
2023-02-12T22:14:59.655Z,7.63
2023-02-12T22:17:29.138Z,7.57
2023-02-12T22:19:58.367Z,5.60
2023-02-12T22:22:28.112Z,12.77
2023-02-12T22:24:58.725Z,8.43
2023-02-12T22:27:28.234Z,6.53
2023-02-12T22:29:57.607Z,8.77
2023-02-12T22:32:27.893Z,6.93
2023-02-12T22:34:57.129Z,8.50
2023-02-12T22:37:26.665Z,7.75
2023-02-12T22:39:57.631Z,5.80
2023-02-12T22:42:27.158Z,9.85
2023-02-12T22:44:56.412Z,11.60
2023-02-12T22:47:26.199Z,9.70
2023-02-12T22:49:55.709Z,8.35
2023-02-12T22:52:25.194Z,7.35
2023-02-12T22:54:54.477Z,8.05
2023-02-12T22:57:25.539Z,7.63
2023-02-12T22:59:55.210Z,4.88
2023-02-12T23:02:24.757Z,5.32
2023-02-12T23:04:54.062Z,7.45
2023-02-12T23:07:23.647Z,5.45
2023-02-12T23:09:52.824Z,5.80
2023-02-12T23:12:22.472Z,5.32
2023-02-12T23:14:53.011Z,6.93
2023-02-12T23:17:22.584Z,5.70
2023-02-12T23:19:51.814Z,6.50
2023-02-12T23:22:21.427Z,4.00
2023-02-12T23:24:51.101Z,6.25
2023-02-12T23:27:20.803Z,6.05
2023-02-12T23:29:50.043Z,3.25
2023-02-12T23:32:20.995Z,7.13
2023-02-12T23:34:50.178Z,5.45
2023-02-12T23:37:19.786Z,8.50
2023-02-12T23:39:48.935Z,6.45
2023-02-12T23:42:19.213Z,5.35
2023-02-12T23:44:48.402Z,3.40
2023-02-12T23:47:19.288Z,4.20
2023-02-12T23:49:48.514Z,4.72
2023-02-12T23:52:17.920Z,4.95
2023-02-12T23:54:47.251Z,6.28
2023-02-12T23:57:16.808Z,3.50
2023-02-12T23:59:46.017Z,3.35
